createdAt,value
2019-01-30T00:01:23.465Z,33.73
2019-01-30T00:03:53.427Z,29.40
2019-01-30T00:06:23.796Z,30.43
2019-01-30T00:08:53.673Z,35.03
2019-01-30T00:11:23.846Z,32.73
2019-01-30T00:13:53.839Z,35.37
2019-01-30T00:16:24.147Z,32.80
2019-01-30T00:18:54.192Z,29.52
2019-01-30T00:21:24.302Z,31.27
2019-01-30T00:23:54.371Z,32.53
2019-01-30T00:26:24.582Z,36.57
2019-01-30T00:28:54.612Z,35.53
2019-01-30T00:31:24.755Z,38.47
2019-01-30T00:33:54.936Z,36.73
2019-01-30T00:36:25.089Z,40.10
2019-01-30T00:38:55.228Z,31.83
2019-01-30T00:41:25.876Z,42.73
2019-01-30T00:43:57.004Z,40.80
2019-01-30T00:46:26.530Z,36.63
2019-01-30T00:48:56.430Z,37.87
2019-01-30T00:51:25.970Z,38.47
2019-01-30T00:53:55.940Z,35.13
2019-01-30T00:56:26.077Z,41.27
2019-01-30T00:58:59.082Z,35.70
2019-01-30T01:01:28.556Z,40.53
2019-01-30T01:03:58.008Z,31.90
2019-01-30T01:06:27.466Z,41.23
2019-01-30T01:08:56.992Z,40.77
2019-01-30T01:11:26.916Z,39.53
2019-01-30T01:13:56.962Z,38.88
2019-01-30T01:16:27.180Z,43.27
2019-01-30T01:18:57.104Z,40.40
2019-01-30T01:21:27.332Z,37.97
2019-01-30T01:23:57.382Z,40.37
2019-01-30T01:26:27.594Z,39.93
2019-01-30T01:28:57.690Z,40.65
2019-01-30T01:31:27.786Z,43.48
2019-01-30T01:33:57.780Z,41.03
2019-01-30T01:36:27.940Z,37.53
2019-01-30T01:38:58.132Z,36.90
2019-01-30T01:41:28.196Z,46.40
2019-01-30T01:43:58.314Z,41.37
2019-01-30T01:46:28.487Z,40.70
2019-01-30T01:48:58.567Z,40.70
2019-01-30T01:51:28.774Z,40.57
2019-01-30T01:53:58.832Z,41.60
2019-01-30T01:56:28.960Z,43.80
2019-01-30T01:58:59.088Z,44.23
2019-01-30T02:01:29.230Z,45.92
2019-01-30T02:03:59.331Z,38.00
2019-01-30T02:06:29.462Z,43.03
2019-01-30T02:08:59.508Z,42.30
2019-01-30T02:11:29.738Z,46.33
2019-01-30T02:13:59.828Z,42.57
2019-01-30T02:16:29.976Z,47.53
2019-01-30T02:19:00.080Z,42.53
2019-01-30T02:21:30.182Z,41.15
2019-01-30T02:24:00.552Z,36.67
2019-01-30T02:26:30.529Z,40.90
2019-01-30T02:29:00.805Z,43.53
2019-01-30T02:31:30.854Z,42.17
2019-01-30T02:34:01.358Z,39.90
2019-01-30T02:36:31.302Z,38.28
2019-01-30T02:39:01.169Z,42.47
2019-01-30T02:41:31.321Z,41.10
2019-01-30T02:44:02.221Z,39.50
2019-01-30T02:46:31.684Z,41.73
2019-01-30T02:49:01.662Z,43.50
2019-01-30T02:51:31.850Z,42.60
2019-01-30T02:54:01.940Z,43.50
2019-01-30T02:56:32.084Z,43.57
2019-01-30T02:59:02.209Z,40.20
2019-01-30T03:01:33.986Z,39.93
2019-01-30T03:04:03.417Z,37.87
2019-01-30T03:06:32.943Z,43.67
2019-01-30T03:09:02.734Z,35.15
2019-01-30T03:11:33.259Z,35.63
2019-01-30T03:14:03.107Z,39.23
2019-01-30T03:16:33.216Z,40.07
2019-01-30T03:19:03.370Z,40.87
2019-01-30T03:21:33.466Z,34.95
2019-01-30T03:24:03.580Z,38.90
2019-01-30T03:26:33.609Z,34.33
2019-01-30T03:29:03.841Z,36.87
2019-01-30T03:31:33.868Z,34.23
2019-01-30T03:34:04.085Z,39.40
2019-01-30T03:36:34.208Z,36.97
2019-01-30T03:39:06.793Z,38.17
2019-01-30T03:41:36.227Z,36.13
2019-01-30T03:44:05.818Z,29.53
2019-01-30T03:46:35.262Z,40.93
2019-01-30T03:49:04.868Z,33.93
2019-01-30T03:51:34.990Z,26.97
2019-01-30T03:54:05.406Z,28.80
2019-01-30T03:56:35.140Z,27.17
2019-01-30T03:59:05.508Z,30.37
2019-01-30T04:01:35.429Z,32.45
2019-01-30T04:04:05.487Z,30.27
2019-01-30T04:06:35.607Z,29.00
2019-01-30T04:09:07.079Z,34.10
2019-01-30T04:11:36.535Z,27.87
2019-01-30T04:14:06.145Z,31.47
2019-01-30T04:16:36.103Z,34.27
2019-01-30T04:19:06.759Z,29.33
2019-01-30T04:21:37.276Z,28.67
2019-01-30T04:24:06.788Z,28.77
2019-01-30T04:26:36.614Z,29.30
2019-01-30T04:29:06.856Z,31.30
2019-01-30T04:31:38.333Z,25.70
2019-01-30T04:34:08.347Z,29.47
2019-01-30T04:36:37.781Z,26.97
2019-01-30T04:39:09.739Z,29.43
2019-01-30T04:41:39.305Z,29.80
2019-01-30T04:44:08.751Z,29.77
2019-01-30T04:46:38.121Z,32.27
2019-01-30T04:49:07.807Z,29.63
2019-01-30T04:51:37.809Z,29.47
2019-01-30T04:54:07.966Z,25.00
2019-01-30T04:56:38.093Z,26.87
2019-01-30T04:59:08.613Z,26.37
2019-01-30T05:01:49.245Z,27.40
2019-01-30T05:04:09.347Z,24.53
2019-01-30T05:06:38.862Z,27.37
2019-01-30T05:09:09.394Z,29.57
2019-01-30T05:11:38.825Z,26.80
2019-01-30T05:14:09.203Z,27.90
2019-01-30T05:16:39.573Z,29.52
2019-01-30T05:19:09.536Z,32.27
2019-01-30T05:21:39.572Z,26.67
2019-01-30T05:24:09.790Z,30.17
2019-01-30T05:26:39.948Z,30.80
2019-01-30T05:29:09.986Z,28.60
2019-01-30T05:31:40.103Z,24.20
2019-01-30T05:34:10.323Z,24.33
2019-01-30T05:36:40.371Z,29.83
2019-01-30T05:39:10.593Z,26.15
2019-01-30T05:41:40.874Z,31.47
2019-01-30T05:44:11.152Z,27.98
2019-01-30T05:46:40.995Z,28.60
2019-01-30T05:49:11.378Z,28.57
2019-01-30T05:51:41.486Z,27.87
2019-01-30T05:54:11.888Z,29.72
2019-01-30T05:56:42.188Z,27.73
2019-01-30T05:59:12.337Z,27.37
2019-01-30T06:01:42.391Z,24.90
2019-01-30T06:04:12.235Z,29.82
2019-01-30T06:06:42.395Z,31.25
2019-01-30T06:09:12.500Z,28.92
2019-01-30T06:11:42.583Z,27.27
2019-01-30T06:14:12.751Z,25.52
2019-01-30T06:16:43.273Z,29.70
2019-01-30T06:19:12.907Z,25.50
2019-01-30T06:21:43.146Z,29.90
2019-01-30T06:24:13.163Z,29.00
2019-01-30T06:26:43.232Z,28.73
2019-01-30T06:29:13.303Z,28.40
2019-01-30T06:31:43.409Z,33.07
2019-01-30T06:34:13.582Z,30.27
2019-01-30T06:36:43.755Z,30.67
2019-01-30T06:39:13.836Z,30.13
2019-01-30T06:41:43.951Z,29.07
2019-01-30T06:44:14.099Z,28.83
2019-01-30T06:46:44.203Z,28.77
2019-01-30T06:49:14.386Z,27.37
2019-01-30T06:51:44.515Z,31.93
2019-01-30T06:54:14.511Z,29.53
2019-01-30T06:56:44.687Z,29.17
2019-01-30T06:59:14.772Z,28.13
2019-01-30T07:01:44.944Z,28.20
2019-01-30T07:04:15.012Z,25.67
2019-01-30T07:06:45.134Z,27.73
2019-01-30T07:09:15.278Z,30.47
2019-01-30T07:11:48.068Z,24.60
2019-01-30T07:14:17.520Z,28.83
2019-01-30T07:16:49.783Z,28.80
2019-01-30T07:19:19.242Z,24.80
2019-01-30T07:21:48.772Z,27.20
2019-01-30T07:24:18.200Z,25.53
2019-01-30T07:26:47.641Z,26.57
2019-01-30T07:29:17.204Z,26.67
2019-01-30T07:31:46.650Z,25.63
2019-01-30T07:34:16.434Z,29.55
2019-01-30T07:36:46.610Z,28.73
2019-01-30T07:39:17.108Z,29.10
2019-01-30T07:41:46.868Z,25.70
2019-01-30T07:44:16.966Z,24.83
2019-01-30T07:46:48.728Z,26.77
2019-01-30T07:49:18.098Z,23.07
2019-01-30T07:51:47.554Z,23.87
2019-01-30T07:54:17.392Z,26.63
2019-01-30T07:56:47.515Z,23.23
2019-01-30T07:59:17.670Z,25.47
2019-01-30T08:01:47.794Z,26.83
2019-01-30T08:04:17.884Z,24.67
2019-01-30T08:06:48.092Z,22.00
2019-01-30T08:09:18.174Z,23.50
2019-01-30T08:11:48.325Z,21.97
2019-01-30T08:14:18.417Z,23.10
2019-01-30T08:16:48.628Z,24.23
2019-01-30T08:19:18.749Z,23.50
2019-01-30T08:21:48.664Z,26.00
2019-01-30T08:24:18.965Z,20.93
2019-01-30T08:26:48.994Z,21.52
2019-01-30T08:29:19.144Z,21.93
2019-01-30T08:31:49.475Z,21.97
2019-01-30T08:34:19.315Z,19.47
2019-01-30T08:36:49.462Z,22.10
2019-01-30T08:39:19.575Z,20.27
2019-01-30T08:41:49.640Z,20.30
2019-01-30T08:44:19.850Z,19.53
2019-01-30T08:46:49.905Z,22.07
2019-01-30T08:49:20.085Z,18.90
2019-01-30T08:51:50.176Z,20.00
2019-01-30T08:54:20.292Z,18.90
2019-01-30T08:56:53.002Z,17.25
2019-01-30T08:59:21.466Z,18.40
2019-01-30T09:01:50.840Z,20.50
2019-01-30T09:04:20.786Z,17.80
2019-01-30T09:06:51.018Z,18.57
2019-01-30T09:09:20.956Z,21.53
2019-01-30T09:11:51.163Z,17.87
2019-01-30T09:14:21.347Z,18.80
2019-01-30T09:16:51.518Z,16.50
2019-01-30T09:19:21.451Z,18.80
2019-01-30T09:21:51.699Z,17.77
2019-01-30T09:24:21.803Z,19.80
2019-01-30T09:26:51.878Z,21.47
2019-01-30T09:29:22.011Z,19.97
2019-01-30T09:31:52.502Z,16.80
2019-01-30T09:34:22.301Z,17.53
2019-01-30T09:36:52.362Z,18.30
2019-01-30T09:39:22.609Z,19.00
2019-01-30T09:41:52.718Z,15.40
2019-01-30T09:44:22.763Z,14.73
2019-01-30T09:46:52.851Z,17.43
2019-01-30T09:49:22.925Z,19.73
2019-01-30T09:51:53.148Z,18.63
2019-01-30T09:54:23.209Z,18.17
2019-01-30T09:56:53.322Z,18.40
2019-01-30T09:59:23.459Z,17.42
2019-01-30T10:01:53.585Z,20.48
2019-01-30T10:04:23.712Z,21.25
2019-01-30T10:06:53.831Z,16.13
2019-01-30T10:09:30.019Z,18.97
2019-01-30T10:11:59.488Z,14.90
2019-01-30T10:14:28.959Z,17.87
2019-01-30T10:16:58.427Z,14.67
2019-01-30T10:19:27.863Z,16.77
2019-01-30T10:21:57.303Z,18.30
2019-01-30T10:24:29.029Z,15.23
2019-01-30T10:26:58.809Z,17.33
2019-01-30T10:29:28.303Z,16.17
2019-01-30T10:31:57.772Z,14.93
2019-01-30T10:34:27.225Z,17.80
2019-01-30T10:36:56.708Z,15.27
2019-01-30T10:39:26.105Z,15.27
2019-01-30T10:41:55.548Z,14.40
2019-01-30T10:44:25.587Z,14.07
2019-01-30T10:46:55.825Z,13.80
2019-01-30T10:49:25.866Z,16.27
2019-01-30T10:51:55.993Z,15.98
2019-01-30T10:54:26.369Z,14.63
2019-01-30T10:56:56.220Z,12.83
2019-01-30T10:59:26.741Z,13.50
2019-01-30T11:01:56.371Z,15.27
2019-01-30T11:04:26.630Z,12.37
2019-01-30T11:06:56.669Z,15.37
2019-01-30T11:09:26.793Z,12.40
2019-01-30T11:11:56.985Z,12.07
2019-01-30T11:14:27.032Z,12.57
2019-01-30T11:16:57.175Z,15.07
2019-01-30T11:19:27.371Z,13.97
2019-01-30T11:21:57.409Z,13.03
2019-01-30T11:24:27.579Z,13.50
2019-01-30T11:26:57.769Z,10.70
2019-01-30T11:29:27.922Z,12.67
2019-01-30T11:31:58.038Z,12.83
2019-01-30T11:34:28.085Z,14.03
2019-01-30T11:37:00.130Z,8.70
2019-01-30T11:39:29.338Z,11.40
2019-01-30T11:41:58.757Z,12.73
2019-01-30T11:44:29.294Z,12.57
2019-01-30T11:46:58.735Z,11.53
2019-01-30T11:49:28.839Z,11.40
2019-01-30T11:51:58.874Z,10.63
2019-01-30T11:54:38.515Z,11.20
2019-01-30T11:57:00.144Z,13.53
2019-01-30T11:59:29.667Z,10.87
2019-01-30T12:01:59.446Z,12.60
2019-01-30T12:04:29.546Z,11.03
2019-01-30T12:06:59.644Z,10.93
2019-01-30T12:09:29.779Z,9.80
2019-01-30T12:11:59.899Z,11.83
2019-01-30T12:14:30.049Z,9.17
2019-01-30T12:17:00.157Z,9.75
2019-01-30T12:19:30.209Z,10.20
2019-01-30T12:22:00.325Z,13.03
2019-01-30T12:24:30.535Z,14.87
2019-01-30T12:27:00.637Z,14.03
2019-01-30T12:29:30.738Z,11.70
2019-01-30T12:32:00.825Z,8.98
2019-01-30T12:34:31.343Z,11.00
2019-01-30T12:37:01.149Z,8.65
2019-01-30T12:39:31.209Z,9.67
2019-01-30T12:42:01.358Z,12.88
2019-01-30T12:44:33.518Z,9.47
2019-01-30T12:47:02.447Z,8.83
2019-01-30T12:49:31.904Z,13.17
2019-01-30T12:52:01.855Z,11.45
2019-01-30T12:54:32.095Z,12.75
2019-01-30T12:57:02.136Z,8.03
2019-01-30T12:59:32.360Z,8.90
2019-01-30T13:02:02.455Z,11.12
2019-01-30T13:04:38.794Z,8.10
2019-01-30T13:07:03.738Z,10.53
2019-01-30T13:09:33.198Z,14.93
2019-01-30T13:12:02.974Z,8.10
2019-01-30T13:14:33.074Z,10.48
2019-01-30T13:17:03.048Z,8.67
2019-01-30T13:19:34.046Z,6.23
2019-01-30T13:22:03.538Z,6.97
2019-01-30T13:24:33.566Z,7.80
2019-01-30T13:27:04.409Z,10.07
2019-01-30T13:29:33.914Z,7.40
2019-01-30T13:32:04.305Z,18.50
2019-01-30T13:34:34.076Z,5.30
2019-01-30T13:37:04.281Z,10.27
2019-01-30T13:39:34.316Z,8.50
2019-01-30T13:42:04.620Z,8.98
2019-01-30T13:44:34.542Z,6.37
2019-01-30T13:47:05.171Z,7.83
2019-01-30T13:49:34.810Z,11.03
2019-01-30T13:52:05.749Z,11.97
2019-01-30T13:54:35.264Z,7.90
2019-01-30T13:57:05.236Z,6.00
2019-01-30T13:59:35.177Z,13.07
2019-01-30T14:02:05.642Z,8.10
2019-01-30T14:04:35.528Z,6.40
2019-01-30T14:07:05.749Z,7.08
2019-01-30T14:09:35.837Z,7.53
2019-01-30T14:12:05.881Z,9.73
2019-01-30T14:14:35.934Z,6.60
2019-01-30T14:17:06.080Z,14.00
2019-01-30T14:19:36.198Z,6.77
2019-01-30T14:22:06.420Z,15.33
2019-01-30T14:24:36.475Z,7.27
2019-01-30T14:27:06.677Z,7.05
2019-01-30T14:29:36.620Z,7.83
2019-01-30T14:32:06.846Z,5.40
2019-01-30T14:34:36.868Z,7.00
2019-01-30T14:37:07.061Z,5.50
2019-01-30T14:39:37.570Z,7.75
2019-01-30T14:42:07.513Z,6.43
2019-01-30T14:44:37.412Z,6.37
2019-01-30T14:47:10.359Z,6.20
2019-01-30T14:49:38.608Z,7.47
2019-01-30T14:52:08.026Z,8.27
2019-01-30T14:54:37.931Z,9.27
2019-01-30T14:57:08.309Z,9.03
2019-01-30T14:59:38.267Z,7.53
2019-01-30T15:02:08.433Z,8.40
2019-01-30T15:04:38.470Z,9.83
2019-01-30T15:07:08.619Z,7.87
2019-01-30T15:09:38.654Z,6.97
2019-01-30T15:12:09.024Z,6.77
2019-01-30T15:14:39.380Z,15.00
2019-01-30T15:17:09.445Z,13.73
2019-01-30T15:19:39.640Z,7.00
2019-01-30T15:22:09.668Z,9.80
2019-01-30T15:24:39.779Z,8.50
2019-01-30T15:27:09.942Z,10.10
2019-01-30T15:29:40.181Z,10.45
2019-01-30T15:32:10.705Z,8.00
2019-01-30T15:34:40.301Z,6.60
2019-01-30T15:37:10.511Z,6.37
2019-01-30T15:39:40.563Z,6.45
2019-01-30T15:42:10.618Z,7.00
2019-01-30T15:44:40.967Z,9.93
2019-01-30T15:47:11.049Z,6.87
2019-01-30T15:49:40.983Z,7.83
2019-01-30T15:52:11.125Z,7.73
2019-01-30T15:54:41.323Z,13.47
2019-01-30T15:57:11.470Z,8.23
2019-01-30T15:59:41.502Z,7.60
2019-01-30T16:02:11.793Z,6.80
2019-01-30T16:04:41.823Z,5.67
2019-01-30T16:07:11.921Z,7.13
2019-01-30T16:09:42.095Z,10.53
2019-01-30T16:12:12.245Z,7.23
2019-01-30T16:14:42.348Z,10.47
2019-01-30T16:17:12.500Z,11.23
2019-01-30T16:19:43.316Z,8.33
2019-01-30T16:22:12.859Z,10.13
2019-01-30T16:24:42.291Z,9.10
2019-01-30T16:27:11.743Z,9.17
2019-01-30T16:29:41.261Z,6.63
2019-01-30T16:32:10.762Z,13.03
2019-01-30T16:34:40.288Z,10.77
2019-01-30T16:37:09.795Z,10.27
2019-01-30T16:39:39.307Z,8.80
2019-01-30T16:42:10.461Z,9.23
2019-01-30T16:44:39.899Z,7.90
2019-01-30T16:47:09.453Z,8.03
2019-01-30T16:49:38.966Z,11.20
2019-01-30T16:52:08.651Z,9.47
2019-01-30T16:54:40.179Z,13.97
2019-01-30T16:57:09.691Z,9.77
2019-01-30T16:59:39.281Z,11.63
2019-01-30T17:02:09.002Z,12.47
2019-01-30T17:04:38.532Z,8.80
2019-01-30T17:07:07.955Z,10.27
2019-01-30T17:09:37.469Z,10.00
2019-01-30T17:12:07.067Z,9.50
2019-01-30T17:14:36.506Z,10.20
2019-01-30T17:17:06.026Z,9.90
2019-01-30T17:19:35.455Z,7.60
2019-01-30T17:22:06.309Z,9.23
2019-01-30T17:24:35.812Z,9.93
2019-01-30T17:27:05.341Z,10.27
2019-01-30T17:29:34.854Z,10.30
2019-01-30T17:32:05.019Z,9.77
2019-01-30T17:34:36.149Z,8.87
2019-01-30T17:37:05.545Z,8.73
2019-01-30T17:39:35.065Z,13.83
2019-01-30T17:42:04.601Z,9.23
2019-01-30T17:44:34.294Z,12.13
2019-01-30T17:47:04.036Z,12.23
2019-01-30T17:49:33.486Z,10.27
2019-01-30T17:52:03.016Z,12.27
2019-01-30T17:54:33.555Z,9.60
2019-01-30T17:57:03.127Z,11.20
2019-01-30T17:59:32.659Z,11.13
2019-01-30T18:02:05.097Z,12.93
2019-01-30T18:04:34.675Z,12.37
2019-01-30T18:07:04.265Z,11.77
2019-01-30T18:09:33.817Z,11.50
2019-01-30T18:12:03.306Z,12.13
2019-01-30T18:14:32.872Z,12.67
2019-01-30T18:17:02.383Z,12.17
2019-01-30T18:19:31.852Z,11.90
2019-01-30T18:22:01.368Z,12.43
2019-01-30T18:24:32.340Z,12.03
2019-01-30T18:27:01.786Z,12.30
2019-01-30T18:29:31.342Z,15.43
2019-01-30T18:32:01.380Z,13.60
2019-01-30T18:34:30.865Z,15.40
2019-01-30T18:37:00.301Z,17.87
2019-01-30T18:39:29.789Z,16.30
2019-01-30T18:41:59.222Z,16.37
2019-01-30T18:44:28.756Z,17.90
2019-01-30T18:46:58.202Z,21.10
2019-01-30T18:49:32.002Z,18.97
2019-01-30T18:52:01.484Z,19.13
2019-01-30T18:54:30.940Z,16.83
2019-01-30T18:57:03.278Z,15.50
2019-01-30T18:59:32.809Z,21.03
2019-01-30T19:02:02.323Z,17.77
2019-01-30T19:04:31.854Z,18.87
2019-01-30T19:07:01.360Z,22.00
2019-01-30T19:09:30.841Z,18.90
2019-01-30T19:12:02.148Z,19.77
2019-01-30T19:14:31.602Z,20.27
2019-01-30T19:17:01.239Z,21.03
2019-01-30T19:19:30.688Z,22.27
2019-01-30T19:22:00.119Z,21.63
2019-01-30T19:24:33.424Z,22.20
2019-01-30T19:27:04.001Z,22.70
2019-01-30T19:29:33.362Z,26.50
2019-01-30T19:32:05.304Z,22.03
2019-01-30T19:34:35.708Z,22.00
2019-01-30T19:37:06.568Z,21.70
2019-01-30T19:39:36.043Z,21.43
2019-01-30T19:42:05.634Z,22.10
2019-01-30T19:44:35.116Z,24.33
2019-01-30T19:47:04.819Z,21.80
2019-01-30T19:49:34.759Z,22.43
2019-01-30T19:52:04.345Z,22.97
2019-01-30T19:54:38.153Z,23.33
2019-01-30T19:57:07.678Z,23.60
2019-01-30T19:59:37.313Z,29.10
2019-01-30T20:02:08.240Z,25.87
2019-01-30T20:04:41.033Z,24.23
2019-01-30T20:07:14.788Z,24.10
2019-01-30T20:09:44.972Z,22.97
2019-01-30T20:12:14.522Z,27.20
2019-01-30T20:14:45.728Z,26.63
2019-01-30T20:17:15.251Z,25.93
2019-01-30T20:19:45.691Z,25.43
2019-01-30T20:22:17.151Z,28.50
2019-01-30T20:24:48.285Z,27.57
2019-01-30T20:27:20.464Z,26.47
2019-01-30T20:29:51.276Z,24.87
2019-01-30T20:32:23.350Z,25.30
2019-01-30T20:34:54.864Z,31.90
2019-01-30T20:37:26.284Z,30.00
2019-01-30T20:39:57.336Z,26.67
2019-01-30T20:42:26.916Z,28.30
2019-01-30T20:44:56.468Z,28.97
2019-01-30T20:47:26.004Z,27.73
2019-01-30T20:49:57.075Z,29.57
2019-01-30T20:52:27.850Z,31.03
2019-01-30T20:54:59.903Z,31.27
2019-01-30T20:57:28.524Z,31.63
2019-01-30T20:59:59.550Z,27.37
2019-01-30T21:02:30.490Z,25.93
2019-01-30T21:05:02.147Z,28.80
2019-01-30T21:07:37.281Z,30.23
2019-01-30T21:10:07.504Z,33.53
2019-01-30T21:12:38.148Z,28.63
2019-01-30T21:15:10.852Z,30.37
2019-01-30T21:17:40.400Z,32.77
2019-01-30T21:20:16.473Z,28.73
2019-01-30T21:22:45.932Z,32.97
2019-01-30T21:25:18.092Z,35.97
2019-01-30T21:27:48.104Z,32.97
2019-01-30T21:30:23.498Z,31.20
2019-01-30T21:32:53.113Z,35.57
2019-01-30T21:35:22.625Z,35.40
2019-01-30T21:37:52.171Z,31.87
2019-01-30T21:40:22.392Z,30.87
2019-01-30T21:42:51.999Z,33.87
2019-01-30T21:45:24.426Z,32.13
2019-01-30T21:47:54.011Z,35.83
2019-01-30T21:50:25.728Z,31.20
2019-01-30T21:52:59.189Z,36.90
2019-01-30T21:55:28.718Z,36.17
2019-01-30T21:57:58.177Z,33.97
2019-01-30T22:00:29.570Z,36.60
2019-01-30T22:02:59.145Z,34.83
2019-01-30T22:05:28.848Z,36.00
2019-01-30T22:08:01.130Z,32.27
2019-01-30T22:10:30.330Z,36.03
2019-01-30T22:12:59.844Z,34.63
2019-01-30T22:15:29.388Z,37.27
2019-01-30T22:17:58.987Z,39.83
2019-01-30T22:20:28.556Z,36.63
2019-01-30T22:22:58.167Z,33.03
2019-01-30T22:25:27.761Z,31.77
2019-01-30T22:27:57.237Z,35.10
2019-01-30T22:30:31.811Z,34.80
2019-01-30T22:33:01.411Z,34.00
2019-01-30T22:35:31.019Z,35.23
2019-01-30T22:38:11.564Z,36.07
2019-01-30T22:40:31.669Z,30.80
2019-01-30T22:43:01.209Z,33.27
2019-01-30T22:45:30.723Z,29.73
2019-01-30T22:48:00.153Z,34.93
2019-01-30T22:50:29.668Z,29.50
2019-01-30T22:52:59.119Z,31.03
2019-01-30T22:55:47.915Z,33.10
2019-01-30T22:58:17.356Z,31.40
2019-01-30T23:01:09.048Z,31.20
2019-01-30T23:03:56.451Z,31.97
2019-01-30T23:06:40.906Z,32.83
2019-01-30T23:09:32.701Z,32.03
2019-01-30T23:12:17.317Z,27.47
2019-01-30T23:14:54.165Z,32.00
2019-01-30T23:17:41.989Z,27.93
2019-01-30T23:20:14.867Z,33.63
2019-01-30T23:22:58.743Z,31.53
2019-01-30T23:25:39.830Z,29.40
2019-01-30T23:28:15.229Z,28.60
2019-01-30T23:31:07.229Z,28.30
2019-01-30T23:33:59.133Z,29.23
2019-01-30T23:36:46.528Z,31.37
2019-01-30T23:39:21.939Z,31.03
2019-01-30T23:42:03.623Z,26.60
2019-01-30T23:44:38.857Z,31.27
2019-01-30T23:47:12.255Z,30.67
2019-01-30T23:49:47.283Z,29.60
2019-01-30T23:52:43.541Z,30.87
2019-01-30T23:55:21.881Z,32.03
2019-01-30T23:57:57.279Z,26.50
